Time;durP1;ratioP1;P1;durP2;ratioP2;P2;SDS_P1;SDS_P2;PMS_P1;PMS_P2;Temp;Humidity;BMP_temperature;BMP_pressure;BME280_temperature;BME280_humidity;BME280_pressure;Samples;Min_cycle;Max_cycle;Signal;HPM_P1;HPM_P2
2022/08/02 00:01:22;;;;;;;0.40;0.10;;;;;;;;;;5075148;28;20290;-67
2022/08/02 00:03:50;;;;;;;0.30;0.20;;;;;;;;;;5076352;28;20059;-67
2022/08/02 00:06:19;;;;;;;0.47;0.35;;;;;;;;;;5074222;28;20044;-67
2022/08/02 00:08:48;;;;;;;0.20;0.20;;;;;;;;;;5083772;28;20036;-67
2022/08/02 00:11:17;;;;;;;0.00;0.00;;;;;;;;;;5083923;28;20534;-67
2022/08/02 00:13:46;;;;;;;0.05;0.05;;;;;;;;;;5075914;28;20140;-67
2022/08/02 00:16:14;;;;;;;0.20;0.20;;;;;;;;;;5074676;28;20112;-67
2022/08/02 00:18:44;;;;;;;0.10;0.03;;;;;;;;;;5079580;28;20563;-66
2022/08/02 00:21:12;;;;;;;0.08;0.08;;;;;;;;;;5083538;28;20719;-67
2022/08/02 00:23:41;;;;;;;0.10;0.10;;;;;;;;;;5082350;28;20040;-67
2022/08/02 00:26:31;;;;;;;0.28;0.10;;;;;;;;;;5062794;28;20037;-66
2022/08/02 00:28:59;;;;;;;0.10;0.10;;;;;;;;;;5064907;28;20528;-68
2022/08/02 00:31:28;;;;;;;0.35;0.20;;;;;;;;;;5068518;28;20058;-67
2022/08/02 00:33:56;;;;;;;0.00;0.00;;;;;;;;;;5064219;28;20378;-68
2022/08/02 00:36:44;;;;;;;0.00;0.00;;;;;;;;;;5079050;28;20036;-69
2022/08/02 00:39:13;;;;;;;0.10;0.10;;;;;;;;;;5080754;28;20068;-67
2022/08/02 00:42:03;;;;;;;0.10;0.08;;;;;;;;;;5077495;28;20078;-68
2022/08/02 00:44:31;;;;;;;0.50;0.32;;;;;;;;;;5079290;28;20128;-68
2022/08/02 00:47:00;;;;;;;0.05;0.00;;;;;;;;;;5071680;28;20587;-67
2022/08/02 00:49:28;;;;;;;0.10;0.08;;;;;;;;;;5081661;28;20106;-68
2022/08/02 00:51:57;;;;;;;0.17;0.10;;;;;;;;;;5079378;28;20047;-68
2022/08/02 00:54:25;;;;;;;0.00;0.00;;;;;;;;;;5075515;28;21067;-67
2022/08/02 00:56:53;;;;;;;0.20;0.20;;;;;;;;;;5083076;28;20491;-67
2022/08/02 00:59:23;;;;;;;0.00;0.00;;;;;;;;;;5081669;28;20147;-66
2022/08/02 01:01:52;;;;;;;0.13;0.13;;;;;;;;;;5086501;28;20134;-67
2022/08/02 01:04:25;;;;;;;0.00;0.00;;;;;;;;;;5080921;28;20092;-67
2022/08/02 01:06:59;;;;;;;0.00;0.00;;;;;;;;;;5085525;28;20056;-68
2022/08/02 01:09:27;;;;;;;0.60;0.20;;;;;;;;;;5082312;28;20143;-67
2022/08/02 01:11:56;;;;;;;0.10;0.10;;;;;;;;;;5087329;28;20126;-68
2022/08/02 01:14:31;;;;;;;0.55;0.20;;;;;;;;;;5082836;28;20059;-67
2022/08/02 01:17:02;;;;;;;0.10;0.10;;;;;;;;;;5083955;28;20062;-67
2022/08/02 01:19:37;;;;;;;0.00;0.00;;;;;;;;;;5084020;28;20080;-66
2022/08/02 01:22:17;;;;;;;0.05;0.00;;;;;;;;;;5081655;28;20051;-67
2022/08/02 01:24:56;;;;;;;0.22;0.10;;;;;;;;;;5079597;28;20105;-67
2022/08/02 01:27:30;;;;;;;0.63;0.25;;;;;;;;;;5085071;28;20048;-67
2022/08/02 01:30:01;;;;;;;0.10;0.10;;;;;;;;;;5080710;28;20047;-68
2022/08/02 01:32:32;;;;;;;0.93;0.30;;;;;;;;;;5080727;28;20043;-67
2022/08/02 01:35:01;;;;;;;0.20;0.20;;;;;;;;;;5082769;28;20143;-67
2022/08/02 01:37:32;;;;;;;0.10;0.10;;;;;;;;;;5085654;28;20138;-66
2022/08/02 01:40:03;;;;;;;0.00;0.00;;;;;;;;;;5077933;28;20500;-67
2022/08/02 01:42:32;;;;;;;0.10;0.10;;;;;;;;;;5071950;28;20175;-67
2022/08/02 01:45:02;;;;;;;0.00;0.00;;;;;;;;;;5080390;28;20075;-67
2022/08/02 01:47:32;;;;;;;0.35;0.22;;;;;;;;;;5074406;28;20079;-67
2022/08/02 01:50:01;;;;;;;0.10;0.10;;;;;;;;;;5071770;28;20119;-67
2022/08/02 01:52:32;;;;;;;0.10;0.10;;;;;;;;;;5083159;28;20054;-68
2022/08/02 01:55:02;;;;;;;0.47;0.17;;;;;;;;;;5077360;28;20090;-68
2022/08/02 01:57:32;;;;;;;0.00;0.00;;;;;;;;;;5077494;28;20058;-67
2022/08/02 02:00:11;;;;;;;0.10;0.10;;;;;;;;;;5070188;28;20167;-67
2022/08/02 02:02:43;;;;;;;0.28;0.28;;;;;;;;;;5083697;28;20052;-67
2022/08/02 02:05:14;;;;;;;0.20;0.10;;;;;;;;;;5085881;28;20121;-67
2022/08/02 02:07:43;;;;;;;0.00;0.00;;;;;;;;;;5082671;28;20377;-66
2022/08/02 02:10:12;;;;;;;0.20;0.20;;;;;;;;;;5086126;28;20131;-69
2022/08/02 02:12:41;;;;;;;0.08;0.00;;;;;;;;;;5077184;28;20088;-68
2022/08/02 02:15:13;;;;;;;0.03;0.03;;;;;;;;;;5085967;28;20052;-66
2022/08/02 02:17:43;;;;;;;0.00;0.00;;;;;;;;;;5081315;28;20044;-67
2022/08/02 02:20:31;;;;;;;0.10;0.10;;;;;;;;;;5074103;28;20248;-67
2022/08/02 02:23:00;;;;;;;0.43;0.43;;;;;;;;;;5080696;28;20101;-66
2022/08/02 02:25:31;;;;;;;0.20;0.20;;;;;;;;;;5071684;28;20056;-66
2022/08/02 02:28:10;;;;;;;0.00;0.00;;;;;;;;;;5072141;28;20177;-67
2022/08/02 02:30:41;;;;;;;0.20;0.10;;;;;;;;;;5079826;28;20044;-68
2022/08/02 02:33:10;;;;;;;0.00;0.00;;;;;;;;;;5083908;28;20083;-67
2022/08/02 02:35:38;;;;;;;0.25;0.13;;;;;;;;;;5086141;28;20510;-67
2022/08/02 02:38:11;;;;;;;0.63;0.08;;;;;;;;;;5073331;28;20535;-68
2022/08/02 02:40:41;;;;;;;0.10;0.10;;;;;;;;;;5079899;28;20047;-67
2022/08/02 02:43:10;;;;;;;0.85;0.13;;;;;;;;;;5072062;28;20147;-67
2022/08/02 02:45:39;;;;;;;0.10;0.10;;;;;;;;;;5075478;28;20468;-67
2022/08/02 02:48:09;;;;;;;0.10;0.10;;;;;;;;;;5078831;28;20530;-70
2022/08/02 02:50:39;;;;;;;0.55;0.20;;;;;;;;;;5081708;28;20135;-67
2022/08/02 02:53:09;;;;;;;0.50;0.45;;;;;;;;;;5076608;28;20374;-66
2022/08/02 02:55:38;;;;;;;0.15;0.10;;;;;;;;;;5075682;28;20068;-67
2022/08/02 02:58:07;;;;;;;0.08;0.08;;;;;;;;;;5077069;28;20185;-67
2022/08/02 03:03:24;;;;;;;0.03;0.03;;;;;;;;;;5078540;28;20052;-67
2022/08/02 03:05:52;;;;;;;0.20;0.20;;;;;;;;;;5076900;28;20139;-67
2022/08/02 03:08:21;;;;;;;0.47;0.15;;;;;;;;;;5083290;28;20091;-67
2022/08/02 03:10:49;;;;;;;0.00;0.00;;;;;;;;;;5080403;28;20124;-68
2022/08/02 03:13:19;;;;;;;0.05;0.05;;;;;;;;;;5080956;28;20122;-68
2022/08/02 03:15:48;;;;;;;0.00;0.00;;;;;;;;;;5078916;28;20048;-68
2022/08/02 03:18:31;;;;;;;0.00;0.00;;;;;;;;;;5078866;28;20135;-67
2022/08/02 03:21:05;;;;;;;0.10;0.10;;;;;;;;;;5081817;28;20070;-67
2022/08/02 03:23:34;;;;;;;0.40;0.40;;;;;;;;;;5081055;28;20048;-67
2022/08/02 03:26:05;;;;;;;0.05;0.05;;;;;;;;;;5071065;28;20064;-67
2022/08/02 03:28:33;;;;;;;0.05;0.05;;;;;;;;;;5054249;28;20067;-67
2022/08/02 03:31:04;;;;;;;0.00;0.00;;;;;;;;;;5067200;28;20131;-67
2022/08/02 03:33:33;;;;;;;0.10;0.10;;;;;;;;;;5066908;28;20044;-68
2022/08/02 03:36:05;;;;;;;0.10;0.10;;;;;;;;;;5073480;28;20165;-67
2022/08/02 03:38:35;;;;;;;0.10;0.10;;;;;;;;;;5071387;28;20491;-66
2022/08/02 03:41:07;;;;;;;1.13;0.22;;;;;;;;;;5072565;28;20075;-67
2022/08/02 03:43:36;;;;;;;0.38;0.38;;;;;;;;;;5077066;28;20448;-67
2022/08/02 03:46:05;;;;;;;0.22;0.22;;;;;;;;;;5082663;28;20303;-68
2022/08/02 03:48:34;;;;;;;0.15;0.10;;;;;;;;;;5074866;28;20155;-68
2022/08/02 03:51:07;;;;;;;0.00;0.00;;;;;;;;;;5076776;28;20048;-67
2022/08/02 03:53:35;;;;;;;0.00;0.00;;;;;;;;;;5073065;28;20047;-67
2022/08/02 03:56:07;;;;;;;0.00;0.00;;;;;;;;;;5072101;28;20419;-68
2022/08/02 03:58:35;;;;;;;0.22;0.20;;;;;;;;;;5078338;28;20067;-67
2022/08/02 04:01:07;;;;;;;0.28;0.17;;;;;;;;;;5076090;28;20159;-67
2022/08/02 04:03:35;;;;;;;0.00;0.00;;;;;;;;;;5072614;28;20347;-67
2022/08/02 04:06:08;;;;;;;1.88;0.20;;;;;;;;;;5078900;28;20127;-67
2022/08/02 04:08:36;;;;;;;0.03;0.03;;;;;;;;;;5078867;28;20420;-67
2022/08/02 04:13:52;;;;;;;0.20;0.10;;;;;;;;;;5084512;28;20144;-67
2022/08/02 04:16:28;;;;;;;0.52;0.20;;;;;;;;;;5064828;28;20102;-67
2022/08/02 04:18:57;;;;;;;0.00;0.00;;;;;;;;;;5062982;28;20119;-67
2022/08/02 04:21:27;;;;;;;0.00;0.00;;;;;;;;;;5072303;28;20152;-67
2022/08/02 04:24:17;;;;;;;0.10;0.10;;;;;;;;;;5064483;28;20368;-67
2022/08/02 04:26:46;;;;;;;0.08;0.08;;;;;;;;;;5071858;28;20252;-67
2022/08/02 04:29:17;;;;;;;0.10;0.10;;;;;;;;;;5063773;28;20044;-67
2022/08/02 04:31:46;;;;;;;0.10;0.10;;;;;;;;;;5062704;28;20651;-69
2022/08/02 04:34:14;;;;;;;0.10;0.10;;;;;;;;;;5058587;28;20048;-67
2022/08/02 04:36:44;;;;;;;0.10;0.10;;;;;;;;;;5072138;28;20135;-67
2022/08/02 04:39:13;;;;;;;0.10;0.10;;;;;;;;;;5080289;28;20486;-67
2022/08/02 04:41:43;;;;;;;0.10;0.10;;;;;;;;;;5087835;28;20166;-67
2022/08/02 04:44:12;;;;;;;0.13;0.13;;;;;;;;;;5081467;28;20050;-67
2022/08/02 04:46:41;;;;;;;0.40;0.25;;;;;;;;;;5072538;28;20417;-67
2022/08/02 04:49:09;;;;;;;0.00;0.00;;;;;;;;;;5083991;28;20070;-68
2022/08/02 04:51:38;;;;;;;0.20;0.20;;;;;;;;;;5080097;28;20538;-67
2022/08/02 04:54:09;;;;;;;0.20;0.20;;;;;;;;;;5081212;28;20036;-68
2022/08/02 04:56:37;;;;;;;0.10;0.10;;;;;;;;;;5074504;28;20138;-67
2022/08/02 04:59:06;;;;;;;0.32;0.28;;;;;;;;;;5077151;28;20084;-68
2022/08/02 05:01:35;;;;;;;0.20;0.10;;;;;;;;;;5077169;28;20036;-68
2022/08/02 05:04:03;;;;;;;0.10;0.10;;;;;;;;;;5082420;28;20140;-67
2022/08/02 05:06:32;;;;;;;0.00;0.00;;;;;;;;;;5085265;28;20701;-67
2022/08/02 05:09:00;;;;;;;0.30;0.22;;;;;;;;;;5079280;28;20131;-67
2022/08/02 05:11:30;;;;;;;0.22;0.10;;;;;;;;;;5082149;28;20582;-67
2022/08/02 05:14:04;;;;;;;0.00;0.00;;;;;;;;;;5079273;28;20109;-67
2022/08/02 05:16:32;;;;;;;0.20;0.20;;;;;;;;;;5075432;28;20048;-67
2022/08/02 05:19:01;;;;;;;0.00;0.00;;;;;;;;;;5079215;28;20454;-67
2022/08/02 05:21:30;;;;;;;0.17;0.17;;;;;;;;;;5083293;28;20052;-68
2022/08/02 05:23:59;;;;;;;0.25;0.15;;;;;;;;;;5082816;28;20332;-67
2022/08/02 05:26:27;;;;;;;0.43;0.10;;;;;;;;;;5071723;28;20140;-68
2022/08/02 05:28:57;;;;;;;0.38;0.20;;;;;;;;;;5062725;28;20187;-67
2022/08/02 05:31:25;;;;;;;0.10;0.10;;;;;;;;;;5060572;28;20074;-67
2022/08/02 05:33:53;;;;;;;0.10;0.10;;;;;;;;;;5063312;28;20044;-68
2022/08/02 05:36:22;;;;;;;0.30;0.20;;;;;;;;;;5061633;28;20051;-68
2022/08/02 05:38:51;;;;;;;0.25;0.20;;;;;;;;;;5063264;28;20040;-68
2022/08/02 05:41:29;;;;;;;0.52;0.20;;;;;;;;;;5066829;28;20102;-67
2022/08/02 05:43:58;;;;;;;0.10;0.10;;;;;;;;;;5064630;28;20059;-68
2022/08/02 05:46:27;;;;;;;0.22;0.20;;;;;;;;;;5065894;28;20328;-68
2022/08/02 05:48:55;;;;;;;0.55;0.20;;;;;;;;;;5055062;28;20520;-67
2022/08/02 05:51:25;;;;;;;0.10;0.10;;;;;;;;;;5067950;28;20052;-67
2022/08/02 05:53:56;;;;;;;0.25;0.10;;;;;;;;;;5064335;28;20048;-67
2022/08/02 05:56:32;;;;;;;0.47;0.47;;;;;;;;;;5068739;28;20083;-68
2022/08/02 05:59:04;;;;;;;0.05;0.05;;;;;;;;;;5068289;28;20326;-66
2022/08/02 06:01:35;;;;;;;0.35;0.25;;;;;;;;;;5056181;28;20080;-67
2022/08/02 06:04:07;;;;;;;0.40;0.20;;;;;;;;;;5070186;28;20048;-66
2022/08/02 06:06:36;;;;;;;0.00;0.00;;;;;;;;;;5065190;28;20102;-67
2022/08/02 06:09:09;;;;;;;0.30;0.20;;;;;;;;;;5069675;28;20052;-67
2022/08/02 06:11:39;;;;;;;0.70;0.47;;;;;;;;;;5064348;28;20052;-67
2022/08/02 06:14:08;;;;;;;0.08;0.08;;;;;;;;;;5069103;28;20106;-66
2022/08/02 06:16:37;;;;;;;0.10;0.10;;;;;;;;;;5060681;28;20563;-67
2022/08/02 06:19:12;;;;;;;0.43;0.32;;;;;;;;;;5068968;28;20127;-67
2022/08/02 06:21:41;;;;;;;0.10;0.10;;;;;;;;;;5069836;28;20045;-66
2022/08/02 06:24:31;;;;;;;0.10;0.10;;;;;;;;;;5066424;28;20067;-67
2022/08/02 06:26:59;;;;;;;0.52;0.28;;;;;;;;;;5069365;28;20127;-67
2022/08/02 06:29:32;;;;;;;0.30;0.20;;;;;;;;;;5064945;28;20533;-67
2022/08/02 06:32:07;;;;;;;0.17;0.17;;;;;;;;;;5059374;28;20045;-67
2022/08/02 06:34:37;;;;;;;0.45;0.20;;;;;;;;;;5065582;28;20055;-67
2022/08/02 06:37:11;;;;;;;0.28;0.25;;;;;;;;;;5060532;28;20048;-67
2022/08/02 06:39:44;;;;;;;0.10;0.10;;;;;;;;;;5066911;28;20233;-67
2022/08/02 06:42:13;;;;;;;0.20;0.08;;;;;;;;;;5061398;28;20080;-68
2022/08/02 06:44:43;;;;;;;0.10;0.10;;;;;;;;;;5062441;28;20052;-67
2022/08/02 06:47:18;;;;;;;1.00;0.35;;;;;;;;;;5064255;28;20083;-68
2022/08/02 06:49:46;;;;;;;0.25;0.20;;;;;;;;;;5060505;28;20040;-69
2022/08/02 06:52:22;;;;;;;0.08;0.08;;;;;;;;;;5061257;28;20044;-69
2022/08/02 06:54:56;;;;;;;0.30;0.30;;;;;;;;;;5065661;28;20050;-70
2022/08/02 06:57:25;;;;;;;0.15;0.15;;;;;;;;;;5053009;28;20049;-69
2022/08/02 06:59:55;;;;;;;0.65;0.22;;;;;;;;;;5061898;28;20103;-69
2022/08/02 07:02:23;;;;;;;0.00;0.00;;;;;;;;;;5059320;28;20080;-69
2022/08/02 07:04:52;;;;;;;0.45;0.38;;;;;;;;;;5055642;28;20094;-69
2022/08/02 07:07:20;;;;;;;0.30;0.30;;;;;;;;;;5062478;28;20102;-70
2022/08/02 07:09:50;;;;;;;0.75;0.10;;;;;;;;;;5063322;28;20110;-69
2022/08/02 07:12:29;;;;;;;0.08;0.08;;;;;;;;;;5067313;28;20048;-69
2022/08/02 07:14:59;;;;;;;0.00;0.00;;;;;;;;;;5068998;28;20048;-70
2022/08/02 07:17:28;;;;;;;0.15;0.15;;;;;;;;;;5064375;28;20045;-72
2022/08/02 07:19:56;;;;;;;3.05;0.20;;;;;;;;;;5055956;28;20094;-68
2022/08/02 07:22:25;;;;;;;0.43;0.43;;;;;;;;;;5059624;28;20087;-67
2022/08/02 07:24:55;;;;;;;0.10;0.10;;;;;;;;;;5063063;28;20052;-68
2022/08/02 07:27:23;;;;;;;0.20;0.20;;;;;;;;;;5062330;28;20079;-71
2022/08/02 07:29:52;;;;;;;0.10;0.10;;;;;;;;;;5058921;28;20044;-69
2022/08/02 07:32:22;;;;;;;0.57;0.30;;;;;;;;;;5060233;28;20539;-71
2022/08/02 07:34:51;;;;;;;0.17;0.17;;;;;;;;;;5064641;28;20502;-71
2022/08/02 07:37:23;;;;;;;1.67;0.30;;;;;;;;;;5057217;28;20052;-69
2022/08/02 07:40:12;;;;;;;0.15;0.13;;;;;;;;;;5057424;28;20057;-68
2022/08/02 07:42:48;;;;;;;0.00;0.00;;;;;;;;;;5066946;28;20344;-70
2022/08/02 07:45:17;;;;;;;0.10;0.10;;;;;;;;;;5062561;28;20320;-68
2022/08/02 07:47:46;;;;;;;0.40;0.30;;;;;;;;;;5059435;28;20045;-69
2022/08/02 07:50:16;;;;;;;1.25;1.05;;;;;;;;;;5060174;28;20656;-68
2022/08/02 07:52:45;;;;;;;0.10;0.10;;;;;;;;;;5059922;28;20044;-68
2022/08/02 07:55:14;;;;;;;0.30;0.20;;;;;;;;;;5065383;28;20063;-73
2022/08/02 07:57:43;;;;;;;0.40;0.40;;;;;;;;;;5059255;28;20061;-69
2022/08/02 08:00:15;;;;;;;0.70;0.45;;;;;;;;;;5062492;28;20503;-71
2022/08/02 08:02:44;;;;;;;0.08;0.08;;;;;;;;;;5065502;28;20056;-69
2022/08/02 08:05:14;;;;;;;0.20;0.10;;;;;;;;;;5062621;28;20060;-68
2022/08/02 08:07:43;;;;;;;0.60;0.40;;;;;;;;;;5064152;28;20044;-68
2022/08/02 08:10:12;;;;;;;1.92;0.40;;;;;;;;;;5060212;28;20071;-68
2022/08/02 08:12:40;;;;;;;0.10;0.10;;;;;;;;;;5063764;28;20060;-70
2022/08/02 08:15:09;;;;;;;0.47;0.47;;;;;;;;;;5062443;28;20045;-69
2022/08/02 08:17:38;;;;;;;0.17;0.17;;;;;;;;;;5059855;28;20045;-75
2022/08/02 08:20:07;;;;;;;0.40;0.30;;;;;;;;;;5065012;28;20053;-69
2022/08/02 08:22:42;;;;;;;3.47;0.88;;;;;;;;;;5068258;28;20048;-74
2022/08/02 08:25:11;;;;;;;0.20;0.20;;;;;;;;;;5066678;28;20160;-75
2022/08/02 08:27:48;;;;;;;1.77;1.33;;;;;;;;;;5065204;28;20066;-72
2022/08/02 08:30:16;;;;;;;0.50;0.20;;;;;;;;;;5059286;28;20052;-72
2022/08/02 08:32:45;;;;;;;1.38;0.40;;;;;;;;;;5068284;28;20045;-69
2022/08/02 08:35:13;;;;;;;0.30;0.30;;;;;;;;;;5055090;28;20508;-72
2022/08/02 08:37:43;;;;;;;0.22;0.20;;;;;;;;;;5068185;28;20132;-71
2022/08/02 08:40:13;;;;;;;1.75;0.30;;;;;;;;;;5063640;28;20052;-69
2022/08/02 08:42:46;;;;;;;;;;;;;;;;;;5066834;28;20086;-70
2022/08/02 08:45:16;;;;;;;0.52;0.30;;;;;;;;;;5062028;28;19986;-72
2022/08/02 08:47:47;;;;;;;0.43;0.25;;;;;;;;;;5083751;28;20051;-72
2022/08/02 08:50:19;;;;;;;0.60;0.40;;;;;;;;;;5087426;28;20056;-70
2022/08/02 08:52:56;;;;;;;0.45;0.32;;;;;;;;;;5077114;28;20384;-69
2022/08/02 08:55:26;;;;;;;1.23;0.95;;;;;;;;;;5078022;28;20464;-72
2022/08/02 08:57:55;;;;;;;0.15;0.15;;;;;;;;;;5086810;28;20044;-73
2022/08/02 09:00:24;;;;;;;0.20;0.20;;;;;;;;;;5087157;28;20097;-69
2022/08/02 09:02:52;;;;;;;0.30;0.20;;;;;;;;;;5087188;28;20114;-71
2022/08/02 09:05:21;;;;;;;0.20;0.20;;;;;;;;;;5089312;28;20054;-73
2022/08/02 09:07:49;;;;;;;0.47;0.30;;;;;;;;;;5087280;28;20476;-69
2022/08/02 09:10:39;;;;;;;0.35;0.20;;;;;;;;;;5078260;28;20521;-73
2022/08/02 09:13:12;;;;;;;0.20;0.20;;;;;;;;;;5082384;28;20047;-69
2022/08/02 09:16:05;;;;;;;0.63;0.30;;;;;;;;;;5084595;28;20380;-68
2022/08/02 09:18:42;;;;;;;0.90;0.50;;;;;;;;;;5084086;28;20389;-70
2022/08/02 09:21:11;;;;;;;0.40;0.30;;;;;;;;;;5084938;28;20059;-70
2022/08/02 09:23:41;;;;;;;0.28;0.20;;;;;;;;;;5083012;28;20140;-72
2022/08/02 09:26:11;;;;;;;0.28;0.20;;;;;;;;;;5079924;28;20388;-69
2022/08/02 09:28:41;;;;;;;1.00;0.32;;;;;;;;;;5084519;28;20040;-69
2022/08/02 09:31:10;;;;;;;0.10;0.10;;;;;;;;;;5078963;28;20541;-69
2022/08/02 09:33:39;;;;;;;2.83;0.50;;;;;;;;;;5077953;28;20051;-69
2022/08/02 09:36:08;;;;;;;0.30;0.30;;;;;;;;;;5062172;28;20057;-70
2022/08/02 09:38:37;;;;;;;0.32;0.20;;;;;;;;;;5065578;28;20082;-72
2022/08/02 09:41:06;;;;;;;0.10;0.10;;;;;;;;;;5071138;28;20328;-68
2022/08/02 09:43:41;;;;;;;0.38;0.38;;;;;;;;;;5063688;28;20048;-70
2022/08/02 09:46:31;;;;;;;0.22;0.15;;;;;;;;;;5064553;28;20099;-71
2022/08/02 09:49:00;;;;;;;0.30;0.30;;;;;;;;;;5063556;28;20480;-74
2022/08/02 09:51:29;;;;;;;0.77;0.30;;;;;;;;;;5069575;28;20071;-76
2022/08/02 09:53:59;;;;;;;0.20;0.20;;;;;;;;;;5065022;28;20044;-75
2022/08/02 09:56:46;;;;;;;0.50;0.20;;;;;;;;;;5067896;28;20114;-75
2022/08/02 09:59:17;;;;;;;0.90;0.50;;;;;;;;;;5075840;28;20072;-71
2022/08/02 10:01:46;;;;;;;0.20;0.20;;;;;;;;;;5083505;28;20467;-71
2022/08/02 10:04:25;;;;;;;0.80;0.45;;;;;;;;;;5078700;28;20493;-69
2022/08/02 10:06:55;;;;;;;0.47;0.45;;;;;;;;;;5087139;28;20519;-71
2022/08/02 10:09:23;;;;;;;0.10;0.10;;;;;;;;;;5074893;28;20052;-73
2022/08/02 10:11:52;;;;;;;0.47;0.30;;;;;;;;;;5077937;28;20050;-73
2022/08/02 10:14:22;;;;;;;0.40;0.30;;;;;;;;;;5079499;28;20091;-70
2022/08/02 10:16:51;;;;;;;0.47;0.30;;;;;;;;;;5084091;28;20040;-71
2022/08/02 10:19:19;;;;;;;0.70;0.32;;;;;;;;;;5077739;28;20135;-70
2022/08/02 10:22:11;;;;;;;0.60;0.50;;;;;;;;;;5087519;28;20047;-69
2022/08/02 10:24:40;;;;;;;0.75;0.35;;;;;;;;;;5080687;28;20041;-74
2022/08/02 10:27:18;;;;;;;1.45;0.60;;;;;;;;;;5063161;28;20052;-70
2022/08/02 10:29:49;;;;;;;0.32;0.20;;;;;;;;;;5062086;28;20151;-74
2022/08/02 10:32:26;;;;;;;0.77;0.57;;;;;;;;;;5068276;28;20045;-73
2022/08/02 10:34:55;;;;;;;0.45;0.30;;;;;;;;;;5063075;28;20431;-69
2022/08/02 10:37:28;;;;;;;0.30;0.20;;;;;;;;;;5087359;28;20046;-69
2022/08/02 10:39:57;;;;;;;0.20;0.20;;;;;;;;;;5086394;28;20122;-70
2022/08/02 10:42:45;;;;;;;0.60;0.35;;;;;;;;;;5088715;28;20467;-72
2022/08/02 10:45:16;;;;;;;0.20;0.20;;;;;;;;;;5082616;28;20076;-73
2022/08/02 10:47:57;;;;;;;0.95;0.10;;;;;;;;;;5089973;28;20464;-69
2022/08/02 10:50:40;;;;;;;1.75;0.47;;;;;;;;;;5075852;28;20076;-71
2022/08/02 10:53:25;;;;;;;1.65;0.70;;;;;;;;;;5082707;28;20544;-70
2022/08/02 10:55:54;;;;;;;0.20;0.20;;;;;;;;;;5088824;28;20051;-70
2022/08/02 10:58:25;;;;;;;0.30;0.30;;;;;;;;;;5087888;28;20055;-71
2022/08/02 11:00:59;;;;;;;0.60;0.20;;;;;;;;;;5085741;28;20090;-70
2022/08/02 11:03:35;;;;;;;0.20;0.20;;;;;;;;;;5078148;28;20066;-70
2022/08/02 11:06:08;;;;;;;0.45;0.35;;;;;;;;;;5085722;28;20044;-75
2022/08/02 11:09:12;;;;;;;0.30;0.28;;;;;;;;;;5083684;28;20063;-70
2022/08/02 11:12:00;;;;;;;0.20;0.20;;;;;;;;;;5083455;28;20135;-69
2022/08/02 11:14:29;;;;;;;0.80;0.60;;;;;;;;;;5082410;28;20450;-73
2022/08/02 11:17:12;;;;;;;0.20;0.20;;;;;;;;;;5076818;28;20171;-71
2022/08/02 11:19:59;;;;;;;0.43;0.17;;;;;;;;;;5073353;28;20133;-71
2022/08/02 11:22:27;;;;;;;0.30;0.13;;;;;;;;;;5070487;28;20084;-74
2022/08/02 11:24:56;;;;;;;1.50;0.40;;;;;;;;;;5071754;28;20071;-69
2022/08/02 11:27:24;;;;;;;0.20;0.20;;;;;;;;;;5069890;28;20127;-69
2022/08/02 11:29:54;;;;;;;0.22;0.15;;;;;;;;;;5072842;28;20576;-69
2022/08/02 11:32:26;;;;;;;0.40;0.40;;;;;;;;;;5071452;28;20090;-69
2022/08/02 11:34:59;;;;;;;0.30;0.30;;;;;;;;;;5076838;28;20408;-75
2022/08/02 11:37:31;;;;;;;0.47;0.30;;;;;;;;;;5069289;28;20082;-69
2022/08/02 11:39:59;;;;;;;0.25;0.22;;;;;;;;;;5075043;28;20052;-73
2022/08/02 11:42:32;;;;;;;2.10;0.20;;;;;;;;;;5075091;28;20519;-72
2022/08/02 11:45:01;;;;;;;0.90;0.52;;;;;;;;;;5075087;28;20086;-70
2022/08/02 11:47:31;;;;;;;0.20;0.20;;;;;;;;;;5074572;28;20051;-71
2022/08/02 11:50:06;;;;;;;0.30;0.30;;;;;;;;;;5079733;28;20568;-74
2022/08/02 11:52:35;;;;;;;0.50;0.30;;;;;;;;;;5070174;28;20241;-70
2022/08/02 11:55:04;;;;;;;0.40;0.30;;;;;;;;;;5076831;28;20044;-69
2022/08/02 11:57:34;;;;;;;0.28;0.17;;;;;;;;;;5072782;28;20064;-71
2022/08/02 12:00:23;;;;;;;0.22;0.20;;;;;;;;;;5074435;28;20060;-73
2022/08/02 12:02:59;;;;;;;0.65;0.20;;;;;;;;;;5071546;28;20198;-70
2022/08/02 12:05:28;;;;;;;0.52;0.43;;;;;;;;;;5071938;28;20532;-70
2022/08/02 12:08:16;;;;;;;0.28;0.22;;;;;;;;;;5070297;28;20048;-72
2022/08/02 12:10:49;;;;;;;0.35;0.20;;;;;;;;;;5077193;28;20047;-72
2022/08/02 12:13:18;;;;;;;0.65;0.50;;;;;;;;;;5075241;28;20555;-69
2022/08/02 12:15:47;;;;;;;0.38;0.20;;;;;;;;;;5073097;28;20048;-70
2022/08/02 12:21:21;;;;;;;0.60;0.25;;;;;;;;;;5074005;28;20051;-70
2022/08/02 12:23:50;;;;;;;0.10;0.10;;;;;;;;;;5072248;28;20086;-69
2022/08/02 12:26:28;;;;;;;0.60;0.30;;;;;;;;;;5071281;28;20452;-73
2022/08/02 12:28:57;;;;;;;0.35;0.30;;;;;;;;;;5064368;28;20071;-71
2022/08/02 12:31:39;;;;;;;0.30;0.30;;;;;;;;;;5062894;28;20045;-69
2022/08/02 12:34:26;;;;;;;1.65;0.08;;;;;;;;;;5066610;28;20094;-70
2022/08/02 12:37:00;;;;;;;0.55;0.30;;;;;;;;;;5079334;28;20048;-74
2022/08/02 12:39:36;;;;;;;0.10;0.10;;;;;;;;;;5076443;28;20147;-75
2022/08/02 12:42:05;;;;;;;0.35;0.30;;;;;;;;;;5082029;28;20048;-69
2022/08/02 12:44:34;;;;;;;1.17;0.40;;;;;;;;;;5084350;28;20131;-72
2022/08/02 12:47:04;;;;;;;0.40;0.22;;;;;;;;;;5078302;28;20478;-71
2022/08/02 12:49:34;;;;;;;0.60;0.40;;;;;;;;;;5081350;28;20049;-72
2022/08/02 12:52:02;;;;;;;0.32;0.30;;;;;;;;;;5085192;28;20052;-71
2022/08/02 12:54:39;;;;;;;0.70;0.30;;;;;;;;;;5082823;28;20049;-71
2022/08/02 12:57:11;;;;;;;0.65;0.20;;;;;;;;;;5078498;28;20052;-69
2022/08/02 12:59:41;;;;;;;0.52;0.50;;;;;;;;;;5074123;28;20488;-70
2022/08/02 13:02:10;;;;;;;0.82;0.40;;;;;;;;;;5074063;28;20080;-69
2022/08/02 13:04:41;;;;;;;1.33;0.35;;;;;;;;;;5083934;28;20123;-69
2022/08/02 13:07:17;;;;;;;0.40;0.20;;;;;;;;;;5077028;28;20076;-68
2022/08/02 13:09:47;;;;;;;0.25;0.20;;;;;;;;;;5085048;28;20036;-69
2022/08/02 13:12:15;;;;;;;0.47;0.47;;;;;;;;;;5077454;28;20063;-71
2022/08/02 13:14:45;;;;;;;0.30;0.30;;;;;;;;;;5076250;28;20504;-71
2022/08/02 13:17:13;;;;;;;0.25;0.20;;;;;;;;;;5073777;28;20471;-69
2022/08/02 13:19:43;;;;;;;1.10;0.55;;;;;;;;;;5079595;28;20072;-70
2022/08/02 13:22:11;;;;;;;0.28;0.20;;;;;;;;;;5078859;28;20090;-71
2022/08/02 13:24:41;;;;;;;0.30;0.30;;;;;;;;;;5075093;28;20053;-68
2022/08/02 13:27:24;;;;;;;0.20;0.20;;;;;;;;;;5067784;28;20420;-70
2022/08/02 13:29:53;;;;;;;0.20;0.20;;;;;;;;;;5068780;28;20362;-69
2022/08/02 13:32:21;;;;;;;0.08;0.08;;;;;;;;;;5063326;28;20113;-73
2022/08/02 13:34:51;;;;;;;0.08;0.08;;;;;;;;;;5070046;28;20102;-69
2022/08/02 13:37:20;;;;;;;0.20;0.20;;;;;;;;;;5067259;28;20569;-69
2022/08/02 13:39:49;;;;;;;0.30;0.20;;;;;;;;;;5062339;28;20048;-69
2022/08/02 13:42:37;;;;;;;0.32;0.20;;;;;;;;;;5057584;28;20045;-69
2022/08/02 13:45:06;;;;;;;0.20;0.20;;;;;;;;;;5061114;28;20149;-69
2022/08/02 13:47:42;;;;;;;0.28;0.20;;;;;;;;;;5068985;28;20059;-70
2022/08/02 13:50:32;;;;;;;0.20;0.20;;;;;;;;;;5057742;28;20132;-69
2022/08/02 13:53:00;;;;;;;0.20;0.20;;;;;;;;;;5053092;28;20488;-71
2022/08/02 13:55:29;;;;;;;0.20;0.20;;;;;;;;;;5066127;28;20119;-73
2022/08/02 13:57:57;;;;;;;0.10;0.10;;;;;;;;;;5068727;28;20060;-70
2022/08/02 14:00:26;;;;;;;0.45;0.45;;;;;;;;;;5067963;28;20504;-72
2022/08/02 14:03:03;;;;;;;0.10;0.10;;;;;;;;;;5059158;28;20044;-68
2022/08/02 14:05:33;;;;;;;0.20;0.20;;;;;;;;;;5059280;28;20484;-71
2022/08/02 14:08:15;;;;;;;0.40;0.30;;;;;;;;;;5063824;28;20057;-70
2022/08/02 14:10:44;;;;;;;0.35;0.17;;;;;;;;;;5067374;28;20052;-71
2022/08/02 14:13:13;;;;;;;0.30;0.10;;;;;;;;;;5061840;28;20147;-73
2022/08/02 14:15:42;;;;;;;1.10;0.20;;;;;;;;;;5060355;28;20040;-69
2022/08/02 14:18:11;;;;;;;0.20;0.20;;;;;;;;;;5062943;28;20555;-70
2022/08/02 14:20:40;;;;;;;0.13;0.13;;;;;;;;;;5066124;28;20484;-70
2022/08/02 14:23:09;;;;;;;0.10;0.10;;;;;;;;;;5060960;28;20752;-70
2022/08/02 14:25:38;;;;;;;0.47;0.25;;;;;;;;;;5069230;28;20071;-71
2022/08/02 14:28:06;;;;;;;0.20;0.20;;;;;;;;;;5065970;28;20053;-69
2022/08/02 14:30:35;;;;;;;0.17;0.17;;;;;;;;;;5064013;28;20281;-71
2022/08/02 14:33:03;;;;;;;0.22;0.22;;;;;;;;;;5061818;28;20536;-71
2022/08/02 14:35:32;;;;;;;0.20;0.10;;;;;;;;;;5067628;28;21400;-69
2022/08/02 14:38:02;;;;;;;0.30;0.20;;;;;;;;;;5064179;28;20080;-69
2022/08/02 14:40:31;;;;;;;0.30;0.28;;;;;;;;;;5067902;28;20087;-73
2022/08/02 14:42:59;;;;;;;0.10;0.10;;;;;;;;;;5065242;28;20048;-74
2022/08/02 14:45:29;;;;;;;0.20;0.20;;;;;;;;;;5064303;28;20056;-73
2022/08/02 14:48:08;;;;;;;0.43;0.43;;;;;;;;;;5066148;28;20202;-69
2022/08/02 14:50:36;;;;;;;0.43;0.43;;;;;;;;;;5068131;28;20068;-79
2022/08/02 14:53:06;;;;;;;0.93;0.30;;;;;;;;;;5066388;28;20131;-76
2022/08/02 14:55:40;;;;;;;0.10;0.10;;;;;;;;;;5065619;28;20056;-71
2022/08/02 14:58:08;;;;;;;0.20;0.20;;;;;;;;;;5065441;28;20060;-74
2022/08/02 15:00:37;;;;;;;0.20;0.20;;;;;;;;;;5064245;28;20076;-72
2022/08/02 15:03:08;;;;;;;0.30;0.20;;;;;;;;;;5065398;28;20102;-72
2022/08/02 15:05:37;;;;;;;0.20;0.20;;;;;;;;;;5065722;28;20339;-68
2022/08/02 15:08:07;;;;;;;0.32;0.30;;;;;;;;;;5060174;28;20052;-69
2022/08/02 15:10:35;;;;;;;0.32;0.20;;;;;;;;;;5068926;28;20101;-74
2022/08/02 15:13:04;;;;;;;0.50;0.20;;;;;;;;;;5067499;28;20076;-77
2022/08/02 15:15:34;;;;;;;0.35;0.20;;;;;;;;;;5059630;28;20043;-70
2022/08/02 15:18:11;;;;;;;0.55;0.10;;;;;;;;;;5061093;28;20068;-69